createdAt,value
2018-12-18T00:01:32.912Z,-0.40
2018-12-18T00:04:01.052Z,-0.50
2018-12-18T00:06:29.188Z,-0.60
2018-12-18T00:08:57.329Z,-0.60
2018-12-18T00:11:25.464Z,-0.80
2018-12-18T00:13:53.622Z,-0.90
2018-12-18T00:16:21.784Z,-0.90
2018-12-18T00:18:49.908Z,-0.90
2018-12-18T00:21:18.032Z,-0.80
2018-12-18T00:23:46.316Z,-0.90
2018-12-18T00:26:14.449Z,-0.90
2018-12-18T00:28:42.583Z,-0.90
2018-12-18T00:31:10.796Z,-1.00
2018-12-18T00:33:38.947Z,-1.00
2018-12-18T00:36:07.164Z,-1.00
2018-12-18T00:38:35.298Z,-1.00
2018-12-18T00:41:03.425Z,-1.00
2018-12-18T00:43:31.560Z,-0.90
2018-12-18T00:45:59.760Z,-0.90
2018-12-18T00:48:27.901Z,-1.00
2018-12-18T00:50:56.028Z,-1.00
2018-12-18T00:53:24.189Z,-1.10
2018-12-18T00:55:52.312Z,-1.10
2018-12-18T00:58:20.435Z,-1.20
2018-12-18T01:00:48.581Z,-1.30
2018-12-18T01:03:16.712Z,-1.30
2018-12-18T01:05:45.024Z,-1.40
2018-12-18T01:08:13.164Z,-1.40
2018-12-18T01:10:41.312Z,-1.50
2018-12-18T01:13:09.509Z,-1.40
2018-12-18T01:15:37.752Z,-1.50
2018-12-18T01:18:05.940Z,-1.50
2018-12-18T01:20:34.083Z,-1.60
2018-12-18T01:23:02.283Z,-1.60
2018-12-18T01:25:30.413Z,-1.70
2018-12-18T01:27:58.552Z,-1.70
2018-12-18T01:30:26.709Z,-1.80
2018-12-18T01:32:54.907Z,-1.80
2018-12-18T01:35:23.071Z,-1.80
2018-12-18T01:37:51.191Z,-1.90
2018-12-18T01:40:19.332Z,-1.90
2018-12-18T01:42:47.454Z,-1.90
2018-12-18T01:45:15.580Z,-0.50
2018-12-18T01:47:43.720Z,-2.00
2018-12-18T01:50:11.943Z,-2.00
2018-12-18T01:52:40.067Z,-2.00
2018-12-18T01:55:08.262Z,-1.90
2018-12-18T01:57:36.493Z,-2.00
2018-12-18T02:00:04.915Z,-2.10
2018-12-18T02:02:33.049Z,-2.10
2018-12-18T02:05:01.184Z,-2.10
2018-12-18T02:07:29.309Z,-2.10
2018-12-18T02:09:57.441Z,-2.10
2018-12-18T02:12:25.587Z,-2.10
2018-12-18T02:14:53.726Z,-2.20
2018-12-18T02:17:21.851Z,-2.20
2018-12-18T02:19:49.984Z,-2.20
2018-12-18T02:22:18.108Z,-2.20
2018-12-18T02:24:46.266Z,-2.30
2018-12-18T02:27:14.391Z,-2.30
2018-12-18T02:29:42.530Z,-2.30
2018-12-18T02:32:10.662Z,-2.30
2018-12-18T02:34:38.796Z,-2.30
2018-12-18T02:37:06.913Z,-2.40
2018-12-18T02:39:35.242Z,-1.10
2018-12-18T02:42:03.532Z,-2.50
2018-12-18T02:44:31.742Z,-2.50
2018-12-18T02:46:59.864Z,-2.60
2018-12-18T02:49:27.996Z,-2.60
2018-12-18T02:51:56.125Z,-2.60
2018-12-18T02:54:24.332Z,-2.60
2018-12-18T02:56:52.531Z,-2.60
2018-12-18T02:59:20.652Z,-2.60
2018-12-18T03:01:48.787Z,-2.70
2018-12-18T03:04:21.455Z,-2.70
2018-12-18T03:06:47.259Z,-2.70
2018-12-18T03:09:15.396Z,-2.80
2018-12-18T03:11:43.512Z,-2.80
2018-12-18T03:14:11.643Z,-2.80
2018-12-18T03:16:39.773Z,-2.80
2018-12-18T03:19:07.905Z,-2.80
2018-12-18T03:21:36.188Z,-2.70
2018-12-18T03:24:04.404Z,-2.70
2018-12-18T03:26:32.632Z,-2.70
2018-12-18T03:29:00.832Z,-2.80
2018-12-18T03:31:30.087Z,-2.80
2018-12-18T03:33:58.416Z,-2.80
2018-12-18T03:36:26.548Z,-2.80
2018-12-18T03:38:54.688Z,-2.70
2018-12-18T03:41:22.830Z,-2.60
2018-12-18T03:43:51.117Z,-2.50
2018-12-18T03:46:19.404Z,-2.60
2018-12-18T03:48:47.524Z,-2.60
2018-12-18T03:51:15.658Z,-2.60
2018-12-18T03:53:43.789Z,-2.60
2018-12-18T03:56:11.999Z,-2.60
2018-12-18T03:58:40.194Z,-2.60
2018-12-18T04:01:08.332Z,-2.60
2018-12-18T04:03:36.544Z,-2.60
2018-12-18T04:06:04.841Z,-2.60
2018-12-18T04:08:33.050Z,-2.60
2018-12-18T04:11:01.269Z,-2.50
2018-12-18T04:13:29.611Z,-2.50
2018-12-18T04:15:57.745Z,-2.60
2018-12-18T04:18:25.888Z,-2.60
2018-12-18T04:20:54.100Z,-2.70
2018-12-18T04:23:22.221Z,-2.80
2018-12-18T04:25:50.355Z,-2.80
2018-12-18T04:28:18.488Z,-2.90
2018-12-18T04:30:46.618Z,-2.90
2018-12-18T04:33:14.748Z,-2.90
2018-12-18T04:35:42.972Z,-2.90
2018-12-18T04:38:11.104Z,-2.90
2018-12-18T04:40:39.237Z,-2.90
2018-12-18T04:43:07.529Z,-2.90
2018-12-18T04:45:35.677Z,-3.00
2018-12-18T04:48:03.875Z,-3.00
2018-12-18T04:50:32.003Z,-3.00
2018-12-18T04:53:00.133Z,-3.00
2018-12-18T04:55:28.276Z,-2.90
2018-12-18T04:57:56.441Z,-2.90
2018-12-18T05:00:24.614Z,-2.90
2018-12-18T05:02:52.735Z,-2.90
2018-12-18T05:05:21.032Z,-3.00
2018-12-18T05:07:49.239Z,-3.10
2018-12-18T05:10:17.441Z,-3.00
2018-12-18T05:12:45.641Z,-2.90
2018-12-18T05:15:13.877Z,-2.90
2018-12-18T05:17:42.084Z,-2.90
2018-12-18T05:20:10.217Z,-2.90
2018-12-18T05:22:38.439Z,-3.00
2018-12-18T05:25:06.588Z,-2.90
2018-12-18T05:27:34.708Z,-2.90
2018-12-18T05:30:02.949Z,-2.90
2018-12-18T05:32:31.085Z,-2.80
2018-12-18T05:34:59.227Z,-2.80
2018-12-18T05:37:27.348Z,-2.70
2018-12-18T05:39:55.471Z,-2.70
2018-12-18T05:42:23.617Z,-2.70
2018-12-18T05:44:51.760Z,-2.70
2018-12-18T05:47:19.892Z,-2.70
2018-12-18T05:49:48.044Z,-2.70
2018-12-18T05:52:16.189Z,-2.60
2018-12-18T05:54:44.307Z,-2.60
2018-12-18T05:57:12.450Z,-2.60
2018-12-18T05:59:40.652Z,-2.60
2018-12-18T06:02:08.792Z,-2.50
2018-12-18T06:04:37.007Z,-2.60
2018-12-18T06:07:05.144Z,-2.60
2018-12-18T06:09:33.277Z,-2.60
2018-12-18T06:12:01.505Z,-2.60
2018-12-18T06:14:29.718Z,-2.50
2018-12-18T06:16:57.852Z,-2.50
2018-12-18T06:19:26.066Z,-2.50
2018-12-18T06:21:54.188Z,-2.40
2018-12-18T06:24:22.336Z,-2.40
2018-12-18T06:26:50.539Z,-2.30
2018-12-18T06:29:18.700Z,-2.40
2018-12-18T06:31:46.940Z,-2.30
2018-12-18T06:34:15.072Z,-2.30
2018-12-18T06:36:43.240Z,-2.30
2018-12-18T06:39:11.370Z,-2.20
2018-12-18T06:41:39.508Z,-2.20
2018-12-18T06:44:07.642Z,-2.20
2018-12-18T06:46:35.872Z,-2.20
2018-12-18T06:49:04.068Z,-2.10
2018-12-18T06:51:32.286Z,-2.00
2018-12-18T06:54:00.442Z,-2.00
2018-12-18T06:56:28.585Z,-2.10
2018-12-18T06:58:56.711Z,-2.20
2018-12-18T07:01:24.856Z,-2.20
2018-12-18T07:03:53.087Z,-2.30
2018-12-18T07:06:21.244Z,-2.20
2018-12-18T07:08:49.446Z,-2.30
2018-12-18T07:11:17.601Z,-2.40
2018-12-18T07:13:45.743Z,-2.40
2018-12-18T07:16:13.881Z,-2.50
2018-12-18T07:18:42.084Z,-2.40
2018-12-18T07:21:10.288Z,-2.50
2018-12-18T07:23:38.501Z,-2.50
2018-12-18T07:26:06.780Z,-2.50
2018-12-18T07:28:34.906Z,-2.50
2018-12-18T07:31:03.208Z,-2.50
2018-12-18T07:33:31.338Z,-2.50
2018-12-18T07:35:59.500Z,-2.50
2018-12-18T07:38:27.691Z,-2.50
2018-12-18T07:40:55.917Z,-2.60
2018-12-18T07:43:24.055Z,-2.80
2018-12-18T07:45:52.191Z,-2.90
2018-12-18T07:48:20.497Z,-3.00
2018-12-18T07:50:48.696Z,-2.90
2018-12-18T07:53:16.821Z,-2.80
2018-12-18T07:55:44.957Z,-2.70
2018-12-18T07:58:13.164Z,-2.70
2018-12-18T08:00:41.369Z,-2.60
2018-12-18T08:03:09.485Z,-2.60
2018-12-18T08:05:37.712Z,-2.70
2018-12-18T08:08:05.924Z,-2.70
2018-12-18T08:10:34.062Z,-2.70
2018-12-18T08:13:02.191Z,-2.60
2018-12-18T08:15:30.480Z,-2.50
2018-12-18T08:17:58.612Z,-2.50
2018-12-18T08:20:26.820Z,-2.50
2018-12-18T08:22:55.049Z,-2.40
2018-12-18T08:25:23.257Z,-2.40
2018-12-18T08:27:51.473Z,-2.40
2018-12-18T08:30:19.680Z,-2.30
2018-12-18T08:32:47.810Z,-2.10
2018-12-18T08:35:16.031Z,-2.00
2018-12-18T08:37:44.165Z,-1.90
2018-12-18T08:40:12.300Z,-1.80
2018-12-18T08:42:41.399Z,-1.80
2018-12-18T08:45:09.772Z,-1.80
2018-12-18T08:47:37.899Z,-1.80
2018-12-18T08:50:07.439Z,-1.80
2018-12-18T08:52:35.573Z,-1.80
2018-12-18T08:55:03.849Z,-1.70
2018-12-18T08:57:31.981Z,-1.60
2018-12-18T09:00:00.213Z,-1.40
2018-12-18T09:02:28.322Z,-1.10
2018-12-18T09:04:56.464Z,-1.00
2018-12-18T09:07:24.712Z,-0.90
2018-12-18T09:09:52.832Z,-0.70
2018-12-18T09:12:20.964Z,-0.40
2018-12-18T09:14:54.357Z,-0.30
2018-12-18T09:17:28.023Z,-0.30
2018-12-18T09:19:56.156Z,-0.40
2018-12-18T09:22:24.324Z,0.00
2018-12-18T09:24:52.527Z,0.70
2018-12-18T09:27:20.776Z,1.40
2018-12-18T09:29:48.985Z,2.00
2018-12-18T09:32:17.179Z,2.70
2018-12-18T09:34:45.320Z,3.80
2018-12-18T09:37:13.525Z,4.10
2018-12-18T09:39:41.764Z,5.50
2018-12-18T09:42:16.081Z,6.80
2018-12-18T09:44:44.280Z,6.90
2018-12-18T09:47:12.493Z,8.10
2018-12-18T09:49:40.688Z,8.80
2018-12-18T09:52:08.904Z,9.40
2018-12-18T09:54:37.126Z,9.90
2018-12-18T09:57:09.576Z,10.00
2018-12-18T09:59:37.786Z,9.60
2018-12-18T10:02:05.920Z,8.90
2018-12-18T10:04:34.069Z,9.30
2018-12-18T10:07:02.282Z,9.20
2018-12-18T10:09:30.421Z,8.70
2018-12-18T10:11:58.696Z,9.00
2018-12-18T10:14:26.934Z,8.90
2018-12-18T10:16:55.060Z,9.00
2018-12-18T10:19:23.459Z,9.10
2018-12-18T10:21:51.671Z,7.80
2018-12-18T10:24:19.810Z,6.50
2018-12-18T10:26:48.049Z,5.50
2018-12-18T10:29:16.183Z,4.20
2018-12-18T10:31:44.313Z,3.10
2018-12-18T10:34:12.544Z,2.20
2018-12-18T10:36:40.684Z,1.80
2018-12-18T10:39:08.947Z,1.40
2018-12-18T10:41:37.144Z,1.10
2018-12-18T10:44:05.275Z,1.00
2018-12-18T10:46:33.458Z,0.90
2018-12-18T10:49:01.605Z,0.90
2018-12-18T10:54:25.327Z,1.10
2018-12-18T10:56:53.553Z,1.20
2018-12-18T10:59:21.716Z,1.40
2018-12-18T11:01:50.020Z,1.50
2018-12-18T11:04:18.176Z,1.70
2018-12-18T11:06:46.375Z,1.70
2018-12-18T11:09:14.833Z,1.80
2018-12-18T11:11:43.144Z,1.90
2018-12-18T11:14:11.299Z,1.90
2018-12-18T11:16:39.445Z,1.90
2018-12-18T11:19:07.616Z,1.90
2018-12-18T11:21:35.787Z,1.90
2018-12-18T11:24:04.084Z,2.00
2018-12-18T11:26:32.280Z,1.90
2018-12-18T11:29:00.512Z,1.90
2018-12-18T11:31:28.727Z,2.00
2018-12-18T11:33:56.868Z,2.20
2018-12-18T11:36:24.984Z,2.10
2018-12-18T11:38:53.196Z,1.80
2018-12-18T11:41:21.343Z,2.00
2018-12-18T11:43:49.496Z,2.10
2018-12-18T11:46:17.775Z,2.10
2018-12-18T11:48:46.100Z,2.00
2018-12-18T11:51:14.309Z,2.00
2018-12-18T11:53:42.598Z,2.10
2018-12-18T11:56:10.840Z,2.20
2018-12-18T11:58:39.001Z,2.10
2018-12-18T12:01:07.136Z,2.10
2018-12-18T12:03:35.283Z,2.10
2018-12-18T12:06:03.475Z,2.20
2018-12-18T12:08:31.736Z,2.30
2018-12-18T12:10:59.901Z,2.60
2018-12-18T12:13:28.040Z,2.70
2018-12-18T12:15:56.178Z,2.70
2018-12-18T12:18:24.330Z,2.80
2018-12-18T12:20:52.498Z,3.00
2018-12-18T12:23:20.889Z,2.90
2018-12-18T12:26:06.321Z,2.90
2018-12-18T12:28:42.276Z,2.90
2018-12-18T12:31:14.409Z,2.90
2018-12-18T12:33:48.542Z,3.10
2018-12-18T12:36:19.854Z,3.20
2018-12-18T12:38:54.424Z,3.40
2018-12-18T12:44:22.036Z,3.30
2018-12-18T12:46:51.855Z,3.50
2018-12-18T12:49:31.656Z,3.40
2018-12-18T12:52:03.732Z,3.40
2018-12-18T12:54:35.646Z,3.50
2018-12-18T12:57:10.253Z,3.60
2018-12-18T12:59:43.884Z,3.60
2018-12-18T13:02:15.401Z,3.60
2018-12-18T13:04:45.517Z,3.70
2018-12-18T13:09:59.508Z,3.60
2018-12-18T13:12:33.851Z,3.70
2018-12-18T13:15:07.773Z,3.70
2018-12-18T13:17:39.064Z,3.70
2018-12-18T13:20:10.834Z,3.80
2018-12-18T13:22:43.811Z,3.80
2018-12-18T13:25:15.578Z,3.90
2018-12-18T13:27:47.540Z,3.90
2018-12-18T13:30:21.601Z,3.90
2018-12-18T13:32:52.891Z,3.90
2018-12-18T13:35:33.773Z,3.90
2018-12-18T13:38:05.418Z,4.00
2018-12-18T13:40:39.761Z,4.10
2018-12-18T13:43:17.580Z,4.10
2018-12-18T13:45:55.205Z,4.20
2018-12-18T13:48:26.927Z,4.20
2018-12-18T13:51:00.644Z,4.10
2018-12-18T13:53:34.577Z,3.90
2018-12-18T13:56:08.521Z,3.70
2018-12-18T13:58:38.261Z,3.60
2018-12-18T14:01:09.478Z,3.70
2018-12-18T14:03:41.588Z,3.70
2018-12-18T14:06:14.121Z,3.60
2018-12-18T14:08:45.463Z,3.60
2018-12-18T14:11:17.569Z,3.40
2018-12-18T14:13:47.701Z,3.30
2018-12-18T14:16:17.605Z,3.30
2018-12-18T14:18:49.593Z,3.20
2018-12-18T14:21:21.639Z,3.10
2018-12-18T14:23:53.525Z,3.00
2018-12-18T14:26:37.954Z,3.10
2018-12-18T14:29:12.399Z,2.90
2018-12-18T14:31:43.735Z,2.80
2018-12-18T14:34:18.277Z,2.70
2018-12-18T14:36:56.228Z,2.70
2018-12-18T14:39:25.820Z,2.60
2018-12-18T14:41:57.807Z,2.60
2018-12-18T14:44:29.971Z,2.50
2018-12-18T14:47:04.228Z,2.50
2018-12-18T14:49:36.045Z,2.40
2018-12-18T14:52:07.901Z,2.30
2018-12-18T14:54:39.959Z,2.30
2018-12-18T14:57:11.842Z,2.20
2018-12-18T14:59:41.664Z,2.10
2018-12-18T15:02:11.665Z,2.00
2018-12-18T15:04:43.838Z,1.90
2018-12-18T15:07:17.988Z,1.70
2018-12-18T15:09:51.747Z,1.60
2018-12-18T15:12:27.552Z,1.40
2018-12-18T15:15:01.680Z,1.30
2018-12-18T15:17:35.496Z,1.20
2018-12-18T15:47:35.538Z,0.00
2018-12-18T15:50:09.902Z,-0.20
2018-12-18T15:52:50.846Z,-0.30
2018-12-18T15:55:32.611Z,-0.40
2018-12-18T15:58:07.602Z,-0.50
2018-12-18T16:00:46.357Z,-0.60
2018-12-18T16:03:21.451Z,-0.70
2018-12-18T16:09:10.353Z,-0.80
2018-12-18T16:11:57.531Z,-0.90
2018-12-18T16:14:31.705Z,-0.90
2018-12-18T16:17:07.333Z,-1.00
2018-12-18T16:19:41.666Z,-1.00
2018-12-18T16:22:15.994Z,-0.80
2018-12-18T16:24:50.897Z,-0.70
2018-12-18T16:27:26.338Z,-0.70
2018-12-18T16:29:58.504Z,-0.80
2018-12-18T16:32:38.209Z,-0.90
2018-12-18T16:35:12.053Z,-0.90
2018-12-18T16:37:46.985Z,-1.00
2018-12-18T16:40:21.066Z,-1.00
2018-12-18T16:42:55.263Z,-1.20
2018-12-18T16:45:31.906Z,-1.30
2018-12-18T16:48:03.849Z,-1.40
2018-12-18T16:50:38.293Z,-1.50
2018-12-18T16:53:09.956Z,-1.60
2018-12-18T16:55:41.480Z,-1.60
2018-12-18T16:58:16.140Z,-1.50
2018-12-18T17:00:48.316Z,-1.40
2018-12-18T17:03:19.985Z,-1.40
2018-12-18T17:05:51.967Z,-1.60
2018-12-18T17:08:23.337Z,-1.70
2018-12-18T17:10:58.567Z,-1.70
2018-12-18T17:13:28.800Z,-1.70
2018-12-18T17:16:00.208Z,-1.70
2018-12-18T17:18:33.272Z,-1.60
2018-12-18T17:21:05.189Z,-1.70
2018-12-18T17:23:37.634Z,-1.70
2018-12-18T17:26:09.692Z,-1.80
2018-12-18T17:28:42.044Z,-1.90
2018-12-18T17:31:12.017Z,-1.90
2018-12-18T17:33:44.045Z,-2.00
2018-12-18T17:36:18.629Z,-2.00
2018-12-18T17:38:50.392Z,-2.00
2018-12-18T17:41:25.886Z,-2.00
2018-12-18T17:43:57.329Z,-2.00
2018-12-18T17:46:29.684Z,-2.10
2018-12-18T17:49:02.704Z,-2.10
2018-12-18T17:51:37.162Z,-2.10
2018-12-18T17:54:08.637Z,-2.10
2018-12-18T17:56:39.534Z,-2.20
2018-12-18T17:59:11.495Z,-2.20
2018-12-18T18:01:43.752Z,-2.20
2018-12-18T18:04:18.085Z,-2.30
2018-12-18T18:06:53.035Z,-2.30
2018-12-18T18:09:24.611Z,-2.30
2018-12-18T18:11:59.164Z,-2.30
2018-12-18T18:14:34.270Z,-2.30
2018-12-18T18:17:12.043Z,-2.30
2018-12-18T18:19:43.603Z,-2.20
2018-12-18T18:22:18.301Z,-2.20
2018-12-18T18:24:50.286Z,-2.20
2018-12-18T18:27:22.108Z,-2.20
2018-12-18T18:29:56.688Z,-2.30
2018-12-18T18:32:26.818Z,-2.30
2018-12-18T18:34:56.675Z,-2.30
2018-12-18T18:37:28.639Z,-2.40
2018-12-18T18:40:02.865Z,-2.40
2018-12-18T18:42:43.768Z,-2.40
2018-12-18T18:45:16.215Z,-2.30
2018-12-18T18:47:50.449Z,-2.30
2018-12-18T18:50:22.797Z,-2.40
2018-12-18T18:52:57.668Z,-2.50
2018-12-18T18:55:32.152Z,-2.50
2018-12-18T18:58:05.935Z,-2.60
2018-12-18T19:00:40.212Z,-2.60
2018-12-18T19:03:18.274Z,-2.70
2018-12-18T19:05:50.636Z,-2.70
2018-12-18T19:08:25.107Z,-2.70
2018-12-18T19:11:01.039Z,-2.70
2018-12-18T19:13:34.687Z,-2.70
2018-12-18T19:16:15.690Z,-2.60
2018-12-18T19:18:51.038Z,-2.60
2018-12-18T19:21:27.373Z,-2.50
2018-12-18T19:24:04.659Z,-2.60
2018-12-18T19:34:10.497Z,-2.70
2018-12-18T19:36:44.641Z,-2.70
2018-12-18T19:42:13.577Z,-2.90
2018-12-18T19:47:51.249Z,-2.90
2018-12-18T19:50:29.040Z,-3.00
2018-12-18T19:53:00.692Z,-3.00
2018-12-18T19:55:33.505Z,-3.00
2018-12-18T19:58:11.932Z,-3.10
2018-12-18T20:00:46.046Z,-3.10
2018-12-18T20:03:18.255Z,-3.20
2018-12-18T20:06:06.056Z,-3.20
2018-12-18T20:08:41.612Z,-3.30
2018-12-18T20:11:10.442Z,-3.30
2018-12-18T20:13:38.818Z,-3.30
2018-12-18T20:16:07.060Z,-3.30
2018-12-18T20:18:35.252Z,-3.30
2018-12-18T20:21:03.588Z,-3.20
2018-12-18T20:23:31.849Z,-3.10
2018-12-18T20:26:00.214Z,-3.10
2018-12-18T20:28:28.373Z,-3.20
2018-12-18T20:30:57.300Z,-3.30
2018-12-18T20:33:25.562Z,-3.30
2018-12-18T20:35:54.577Z,-3.40
2018-12-18T20:38:22.877Z,-3.40
2018-12-18T20:40:51.072Z,-3.50
2018-12-18T20:43:19.767Z,-3.50
2018-12-18T20:45:48.016Z,-3.50
2018-12-18T20:48:16.230Z,-3.50
2018-12-18T20:50:44.375Z,-3.60
2018-12-18T20:53:12.684Z,-3.60
2018-12-18T20:55:46.938Z,-3.60
2018-12-18T21:04:20.412Z,-3.70
2018-12-18T21:09:59.042Z,-3.70
2018-12-18T21:12:36.771Z,-3.70
2018-12-18T21:15:10.828Z,-3.80
2018-12-18T21:17:42.751Z,-3.80
2018-12-18T21:20:16.591Z,-3.70
2018-12-18T21:22:45.262Z,-3.70
2018-12-18T21:25:18.941Z,-3.70
2018-12-18T21:27:43.942Z,-3.70
2018-12-18T21:30:12.168Z,-3.70
2018-12-18T21:32:40.571Z,-3.70
2018-12-18T21:35:08.936Z,-3.70
2018-12-18T21:37:37.190Z,-3.70
2018-12-18T21:40:06.040Z,-3.80
2018-12-18T21:42:34.322Z,-3.70
2018-12-18T21:45:02.707Z,-3.70
2018-12-18T21:47:30.936Z,-3.70
2018-12-18T21:49:59.172Z,-3.70
2018-12-18T21:52:27.441Z,-3.70
2018-12-18T21:54:55.765Z,-3.70
2018-12-18T21:57:24.015Z,-3.70
2018-12-18T21:59:52.269Z,-3.70
2018-12-18T22:02:20.628Z,-3.70
2018-12-18T22:04:48.884Z,-3.70
2018-12-18T22:07:17.240Z,-3.60
2018-12-18T22:09:45.505Z,-3.50
2018-12-18T22:12:13.760Z,-3.50
2018-12-18T22:14:42.030Z,-3.40
2018-12-18T22:17:10.285Z,-3.30
2018-12-18T22:19:38.540Z,-3.30
2018-12-18T22:22:06.782Z,-3.40
2018-12-18T22:24:35.045Z,-3.40
2018-12-18T22:27:03.171Z,-3.40
2018-12-18T22:29:31.373Z,-3.40
2018-12-18T22:31:59.667Z,-3.40
2018-12-18T22:34:27.885Z,-3.50
2018-12-18T22:36:56.023Z,-3.50
2018-12-18T22:39:24.234Z,-3.50
2018-12-18T22:41:52.377Z,-3.60
2018-12-18T22:44:20.550Z,-3.60
2018-12-18T22:46:48.814Z,-3.60
2018-12-18T22:49:16.953Z,-3.60
2018-12-18T22:51:45.089Z,-3.60
2018-12-18T22:54:13.291Z,-3.60
2018-12-18T22:56:41.875Z,-3.50
2018-12-18T22:59:09.997Z,-3.50
2018-12-18T23:01:45.144Z,-3.50
2018-12-18T23:04:14.820Z,-3.50
2018-12-18T23:06:43.029Z,-3.50
2018-12-18T23:09:16.132Z,-3.60
2018-12-18T23:11:44.444Z,-3.60
2018-12-18T23:14:12.676Z,-3.60
2018-12-18T23:16:40.820Z,-3.60
2018-12-18T23:19:08.959Z,-3.60
2018-12-18T23:21:37.194Z,-3.50
2018-12-18T23:24:05.366Z,-3.50
2018-12-18T23:26:33.576Z,-3.50
2018-12-18T23:29:01.711Z,-3.60
2018-12-18T23:31:29.851Z,-3.60
2018-12-18T23:33:58.005Z,-3.60
2018-12-18T23:36:26.229Z,-3.60
2018-12-18T23:38:56.979Z,-3.60
2018-12-18T23:41:24.528Z,-3.60
2018-12-18T23:43:52.688Z,-3.60
2018-12-18T23:46:20.836Z,-3.70
2018-12-18T23:48:49.016Z,-3.70
2018-12-18T23:51:17.153Z,-3.70
2018-12-18T23:53:45.291Z,-3.80
2018-12-18T23:56:13.508Z,-3.80
2018-12-18T23:58:41.652Z,-3.80
